Time;durP1;ratioP1;P1;durP2;ratioP2;P2;SDS_P1;SDS_P2;PMS_P1;PMS_P2;Temp;Humidity;BMP_temperature;BMP_pressure;BME280_temperature;BME280_humidity;BME280_pressure;Samples;Min_cycle;Max_cycle;Signal;HPM_P1;HPM_P2
2024/01/21 00:02:21;;;;;;;13.63;8.50;;;-2.70;99.90;-3.90;101356;;;;567488;249;24095;-78
2024/01/21 00:04:52;;;;;;;13.83;9.53;;;-2.60;99.90;-3.80;101358;;;;567367;249;24076;-79
2024/01/21 00:07:17;;;;;;;14.50;8.93;;;-2.60;99.90;-3.70;101361;;;;567220;249;24105;-82
2024/01/21 00:09:45;;;;;;;18.30;9.80;;;-2.50;99.90;-3.70;101365;;;;567281;249;24137;-77
2024/01/21 00:12:13;;;;;;;13.73;9.23;;;-2.50;99.90;-3.70;101362;;;;567524;249;24092;-80
2024/01/21 00:14:41;;;;;;;13.70;8.77;;;-2.50;99.90;-3.70;101366;;;;567105;249;24105;-80
2024/01/21 00:17:11;;;;;;;13.47;8.87;;;-2.50;99.90;-3.70;101374;;;;566871;249;24116;-79
2024/01/21 00:19:36;;;;;;;14.57;9.00;;;-2.40;99.90;-3.70;101372;;;;566497;249;24103;-78
2024/01/21 00:22:04;;;;;;;14.07;9.43;;;-2.40;99.90;-3.70;101377;;;;566776;249;24139;-78
2024/01/21 00:24:32;;;;;;;14.10;9.13;;;-2.50;99.90;-3.80;101367;;;;573946;249;24080;-80
2024/01/21 00:27:01;;;;;;;14.27;8.73;;;-2.50;99.90;-3.80;101381;;;;568733;249;24097;-80
2024/01/21 00:29:30;;;;;;;13.87;8.87;;;-2.60;99.90;-3.90;101384;;;;566777;249;24118;-81
2024/01/21 00:31:58;;;;;;;19.30;10.13;;;-2.60;99.90;-3.90;101374;;;;566853;249;24089;-82
2024/01/21 00:34:26;;;;;;;15.13;9.57;;;-2.60;99.90;-3.90;101368;;;;566720;249;24098;-80
2024/01/21 00:36:54;;;;;;;13.77;9.20;;;-2.60;99.90;-3.90;101372;;;;566961;249;24099;-80
2024/01/21 00:39:23;;;;;;;18.47;10.30;;;-2.60;99.90;-3.90;101385;;;;575285;249;24117;-81
2024/01/21 00:41:51;;;;;;;14.70;9.53;;;-2.60;99.90;-3.90;101392;;;;566869;249;24075;-79
2024/01/21 00:44:20;;;;;;;15.40;9.27;;;-2.70;99.90;-4.00;101390;;;;566848;249;24070;-80
2024/01/21 00:46:50;;;;;;;18.23;12.07;;;-2.70;99.90;-4.00;101390;;;;566677;249;24112;-79
2024/01/21 00:49:16;;;;;;;19.13;11.43;;;-2.70;99.90;-4.10;101394;;;;566858;249;24091;-80
2024/01/21 00:51:45;;;;;;;15.60;10.53;;;-2.80;99.90;-4.00;101394;;;;566703;249;24115;-80
2024/01/21 00:54:13;;;;;;;16.73;10.60;;;-2.80;99.90;-4.00;101384;;;;568330;249;24096;-79
2024/01/21 00:56:41;;;;;;;13.40;9.27;;;-2.70;99.90;-4.00;101396;;;;568208;249;24147;-77
2024/01/21 00:59:10;;;;;;;14.47;7.90;;;-2.70;99.90;-4.00;101397;;;;567971;249;24080;-78
2024/01/21 01:01:41;;;;;;;13.83;7.63;;;-2.70;99.90;-3.90;101403;;;;574692;249;24128;-78
2024/01/21 01:04:07;;;;;;;10.33;6.57;;;-2.60;99.90;-3.80;101395;;;;574209;249;25156;-78
2024/01/21 01:06:36;;;;;;;12.80;7.13;;;-2.50;99.90;-3.80;101385;;;;567689;249;24079;-78
2024/01/21 01:09:05;;;;;;;10.70;6.63;;;-2.40;99.90;-3.70;101391;;;;567615;249;25120;-78
2024/01/21 01:11:33;;;;;;;10.63;6.87;;;-2.50;99.90;-3.60;101399;;;;567229;249;24086;-80
2024/01/21 01:14:01;;;;;;;11.53;6.03;;;-2.40;99.90;-3.50;101395;;;;567036;249;24093;-79
2024/01/21 01:16:28;;;;;;;13.10;8.32;;;-2.30;99.90;-3.40;101387;;;;562152;249;46193;-79
2024/01/21 01:18:57;;;;;;;12.20;7.73;;;-2.20;99.90;-3.30;101393;;;;567103;249;24122;-80
2024/01/21 01:21:24;;;;;;;11.80;7.40;;;-2.10;99.90;-3.20;101390;;;;566934;249;24146;-80
2024/01/21 01:23:52;;;;;;;11.40;7.90;;;-2.00;99.90;-3.20;101388;;;;567184;249;24119;-81
2024/01/21 01:26:20;;;;;;;12.47;8.07;;;-1.90;99.90;-3.10;101393;;;;567349;249;24112;-79
2024/01/21 01:28:48;;;;;;;14.10;8.07;;;-1.90;99.90;-3.10;101390;;;;567101;249;24101;-80
2024/01/21 01:31:19;;;;;;;11.93;8.93;;;-1.90;99.90;-3.20;101392;;;;566756;249;24127;-80
2024/01/21 01:33:47;;;;;;;16.40;8.97;;;-1.90;99.90;-3.20;101390;;;;563462;249;24125;-79
2024/01/21 01:36:15;;;;;;;12.17;8.63;;;-1.90;99.90;-3.20;101390;;;;566860;249;24073;-80
2024/01/21 01:38:43;;;;;;;10.87;8.13;;;-1.90;99.90;-3.20;101385;;;;566762;249;24099;-79
2024/01/21 01:41:11;;;;;;;11.83;8.97;;;-2.00;99.90;-3.30;101384;;;;566747;249;24112;-78
2024/01/21 01:43:39;;;;;;;12.07;8.67;;;-2.00;99.90;-3.30;101387;;;;566775;249;24092;-80
2024/01/21 01:46:07;;;;;;;15.37;8.30;;;-2.10;99.90;-3.30;101375;;;;567117;249;24142;-79
2024/01/21 01:48:36;;;;;;;16.80;7.67;;;-2.10;99.90;-3.30;101382;;;;573643;249;25133;-80
2024/01/21 01:51:05;;;;;;;11.93;7.20;;;-2.00;99.90;-3.30;101384;;;;568550;249;24112;-79
2024/01/21 01:53:33;;;;;;;10.97;7.63;;;-2.00;99.90;-3.20;101388;;;;566833;249;24127;-77
2024/01/21 01:56:02;;;;;;;9.50;7.13;;;-1.90;99.90;-3.10;101384;;;;573507;249;24201;-79
2024/01/21 01:58:30;;;;;;;12.33;8.40;;;-1.90;99.90;-3.00;101390;;;;573911;249;24098;-79
2024/01/21 02:00:58;;;;;;;10.13;7.30;;;-1.80;99.90;-2.90;101398;;;;573947;249;24100;-80
2024/01/21 02:03:26;;;;;;;11.87;7.27;;;-1.70;99.90;-2.70;101395;;;;567152;249;24105;-80
2024/01/21 02:05:54;;;;;;;11.13;8.03;;;-1.50;99.90;-2.60;101400;;;;568649;249;24125;-79
2024/01/21 02:08:22;;;;;;;11.63;8.10;;;-1.40;99.90;-2.50;101401;;;;574956;249;24088;-79
2024/01/21 02:10:49;;;;;;;10.80;8.30;;;-1.40;99.90;-2.40;101394;;;;567951;249;24100;-79
2024/01/21 02:13:18;;;;;;;10.87;7.77;;;-1.20;99.90;-2.40;101397;;;;567477;249;24198;-78
2024/01/21 02:15:46;;;;;;;12.30;8.47;;;-1.20;99.90;-2.30;101409;;;;564144;249;25135;-77
2024/01/21 02:18:14;;;;;;;11.97;7.90;;;-1.10;99.90;-2.20;101411;;;;567370;249;24135;-78
2024/01/21 02:20:42;;;;;;;11.83;9.13;;;-1.00;99.90;-2.10;101407;;;;567183;249;24089;-78
2024/01/21 02:23:10;;;;;;;11.57;7.83;;;-0.90;99.90;-2.00;101408;;;;567233;249;24103;-77
2024/01/21 02:25:38;;;;;;;11.33;7.87;;;-0.80;99.90;-1.90;101402;;;;566944;249;24116;-79
2024/01/21 02:28:09;;;;;;;12.20;7.00;;;-0.70;99.90;-1.90;101401;;;;567200;249;24095;-78
2024/01/21 02:30:37;;;;;;;8.90;7.37;;;-0.70;99.90;-1.80;101400;;;;566849;249;24117;-79
2024/01/21 02:33:01;;;;;;;9.57;6.20;;;-0.60;99.90;-1.80;101413;;;;566961;249;24081;-79
2024/01/21 02:35:29;;;;;;;11.47;6.80;;;-0.50;99.90;-1.70;101417;;;;567109;249;24088;-79
2024/01/21 02:37:57;;;;;;;9.80;6.70;;;-0.50;99.90;-1.60;101408;;;;567041;249;24109;-77
2024/01/21 02:40:29;;;;;;;10.67;6.30;;;-0.40;99.90;-1.60;101421;;;;567029;249;24088;-78
2024/01/21 02:42:53;;;;;;;6.87;6.03;;;-0.40;99.90;-1.50;101411;;;;573165;249;24106;-76
2024/01/21 02:45:21;;;;;;;7.47;5.33;;;-0.30;99.90;-1.50;101404;;;;566935;249;24135;-78
2024/01/21 02:47:50;;;;;;;9.10;6.77;;;-0.20;99.90;-1.40;101406;;;;566836;249;24113;-79
2024/01/21 02:50:18;;;;;;;9.23;6.13;;;-0.20;99.90;-1.40;101423;;;;566724;249;24132;-76
2024/01/21 02:52:46;;;;;;;9.80;6.60;;;-0.20;99.90;-1.30;101408;;;;566814;249;25137;-79
2024/01/21 02:55:14;;;;;;;8.30;7.17;;;-0.10;99.90;-1.30;101411;;;;566790;249;24084;-78
2024/01/21 02:57:42;;;;;;;9.07;6.77;;;-0.10;99.90;-1.30;101411;;;;567186;249;24147;-77
2024/01/21 03:00:10;;;;;;;13.00;7.33;;;-0.10;99.90;-1.20;101423;;;;567233;249;24103;-80
2024/01/21 03:02:38;;;;;;;5.13;4.37;;;0.00;99.90;-1.20;101420;;;;573944;249;25205;-80
2024/01/21 03:05:10;;;;;;;7.80;4.03;;;0.00;99.90;-1.20;101424;;;;573990;249;24076;-81
2024/01/21 03:07:34;;;;;;;10.63;5.37;;;0.00;99.90;-1.10;101414;;;;569728;249;24091;-80
2024/01/21 03:10:02;;;;;;;7.97;4.43;;;0.10;99.90;-1.10;101424;;;;573959;249;24123;-81
2024/01/21 03:12:30;;;;;;;6.03;3.43;;;0.10;99.90;-1.10;101410;;;;575730;249;24453;-78
2024/01/21 03:14:58;;;;;;;9.77;4.47;;;0.10;99.90;-1.10;101414;;;;573750;249;24120;-81
2024/01/21 03:17:25;;;;;;;5.73;4.10;;;0.20;99.90;-1.00;101416;;;;575110;248;24093;-81
2024/01/21 03:19:53;;;;;;;6.60;3.73;;;0.20;99.90;-1.00;101429;;;;574448;249;24087;-79
2024/01/21 03:22:21;;;;;;;5.10;4.53;;;0.20;99.90;-1.00;101428;;;;574438;249;24098;-80
2024/01/21 03:24:49;;;;;;;8.70;4.23;;;0.20;99.90;-1.00;101424;;;;574215;249;24073;-80
2024/01/21 03:27:18;;;;;;;7.80;4.10;;;0.30;99.90;-0.90;101426;;;;574287;249;24115;-79
2024/01/21 03:29:47;;;;;;;6.20;5.30;;;0.30;99.90;-0.90;101426;;;;565224;249;24101;-80
2024/01/21 03:32:14;;;;;;;11.87;4.80;;;0.30;99.90;-0.90;101433;;;;574003;249;24087;-81
2024/01/21 03:34:43;;;;;;;16.90;9.40;;;0.30;99.90;-0.90;101426;;;;568935;249;35267;-80
2024/01/21 03:37:11;;;;;;;9.60;6.97;;;0.30;99.90;-0.90;101427;;;;573689;249;24129;-80
2024/01/21 03:39:38;;;;;;;5.67;5.00;;;0.30;99.90;-0.80;101423;;;;573846;249;24112;-81
2024/01/21 03:42:06;;;;;;;8.97;5.43;;;0.30;99.90;-0.80;101423;;;;573817;249;24126;-81
2024/01/21 03:44:34;;;;;;;6.93;5.27;;;0.40;99.90;-0.80;101432;;;;574236;249;24074;-81
2024/01/21 03:47:02;;;;;;;8.53;5.23;;;0.40;99.90;-0.80;101412;;;;574206;249;24089;-80
2024/01/21 03:49:30;;;;;;;13.13;6.70;;;0.40;99.90;-0.80;101414;;;;574207;249;24080;-80
2024/01/21 03:51:58;;;;;;;12.67;6.73;;;0.50;99.90;-0.70;101402;;;;574123;249;24077;-80
2024/01/21 03:54:27;;;;;;;11.70;5.47;;;0.50;99.90;-0.70;101406;;;;573957;249;24081;-78
2024/01/21 03:56:56;;;;;;;10.27;5.67;;;0.50;99.90;-0.70;101406;;;;573960;249;24099;-80
2024/01/21 03:59:24;;;;;;;12.80;6.40;;;0.40;99.90;-0.70;101400;;;;573568;249;24095;-78
2024/01/21 04:01:52;;;;;;;9.57;5.60;;;0.50;99.90;-0.70;101409;;;;573728;249;24095;-79
2024/01/21 04:04:20;;;;;;;6.60;4.83;;;0.50;99.90;-0.70;101403;;;;573605;249;24110;-79
2024/01/21 04:06:47;;;;;;;10.37;5.97;;;0.50;99.90;-0.60;101414;;;;573502;249;24149;-80
2024/01/21 04:09:19;;;;;;;13.57;6.47;;;0.50;99.90;-0.60;101404;;;;573590;249;24098;-79
2024/01/21 04:11:44;;;;;;;12.23;6.23;;;0.60;99.90;-0.60;101408;;;;573319;249;24099;-79
2024/01/21 04:14:13;;;;;;;9.97;6.43;;;0.60;99.90;-0.60;101395;;;;573731;249;24085;-80
2024/01/21 04:16:41;;;;;;;8.50;5.40;;;0.60;99.90;-0.60;101409;;;;573976;249;24077;-80
2024/01/21 04:19:09;;;;;;;17.23;7.53;;;0.60;99.90;-0.60;101412;;;;573965;249;24093;-80
2024/01/21 04:21:39;;;;;;;10.30;6.10;;;0.60;99.90;-0.60;101404;;;;573843;249;24085;-80
2024/01/21 04:24:08;;;;;;;19.33;11.40;;;0.60;99.90;-0.50;101398;;;;568754;249;35323;-81
2024/01/21 04:26:38;;;;;;;23.73;13.98;;;0.70;99.90;-0.50;101401;;;;560329;249;35302;-77
2024/01/21 04:29:06;;;;;;;24.37;13.75;;;0.70;99.90;-0.40;101405;;;;560017;249;35388;-79
2024/01/21 04:31:31;;;;;;;21.17;10.20;;;0.70;99.90;-0.40;101412;;;;566254;249;24098;-78
2024/01/21 04:34:00;;;;;;;14.10;8.13;;;0.80;99.90;-0.40;101409;;;;566171;249;24110;-78
2024/01/21 04:36:28;;;;;;;13.27;7.47;;;0.80;99.90;-0.40;101421;;;;574602;249;24114;-80
2024/01/21 04:38:56;;;;;;;16.07;7.80;;;0.80;99.90;-0.30;101426;;;;574514;249;24229;-79
2024/01/21 04:41:23;;;;;;;11.23;6.73;;;0.90;99.90;-0.30;101419;;;;574439;249;24435;-78
2024/01/21 04:43:51;;;;;;;12.87;6.93;;;0.90;99.90;-0.30;101422;;;;574475;249;24082;-77
2024/01/21 04:46:22;;;;;;;13.87;7.40;;;0.90;99.90;-0.30;101415;;;;573942;249;24109;-78
2024/01/21 04:48:47;;;;;;;12.23;7.30;;;0.90;99.90;-0.20;101413;;;;573439;249;24228;-80
2024/01/21 04:51:16;;;;;;;15.87;7.87;;;0.90;99.90;-0.20;101418;;;;573873;249;24082;-78
2024/01/21 04:53:44;;;;;;;21.07;7.90;;;1.00;99.90;-0.20;101411;;;;573749;249;24091;-78
2024/01/21 04:56:18;;;;;;;10.53;5.93;;;1.00;99.90;-0.20;101410;;;;575581;249;24130;-78
2024/01/21 04:58:46;;;;;;;13.70;7.07;;;1.00;99.90;-0.10;101404;;;;574171;249;24077;-78
2024/01/21 05:01:14;;;;;;;12.10;6.87;;;1.00;99.90;-0.10;101402;;;;563866;249;24125;-78
2024/01/21 05:03:42;;;;;;;14.33;7.07;;;1.00;99.90;-0.10;101404;;;;573694;249;24129;-79
2024/01/21 05:06:10;;;;;;;13.53;6.30;;;1.10;99.90;-0.10;101401;;;;573484;249;24139;-80
2024/01/21 05:08:37;;;;;;;17.00;8.37;;;1.10;99.90;-0.10;101400;;;;573666;249;24097;-80
2024/01/21 05:11:05;;;;;;;18.03;7.57;;;1.10;99.90;0.00;101399;;;;573506;249;25192;-80
2024/01/21 05:13:34;;;;;;;17.43;6.77;;;1.20;99.90;0.00;101408;;;;565238;249;24106;-80
2024/01/21 05:16:03;;;;;;;14.67;6.23;;;1.10;99.90;0.00;101400;;;;565050;249;24150;-79
2024/01/21 05:18:30;;;;;;;16.07;7.77;;;1.20;99.90;0.00;101391;;;;565469;249;24150;-80
2024/01/21 05:20:58;;;;;;;16.77;6.30;;;1.20;99.90;0.00;101407;;;;565439;249;24091;-80
2024/01/21 05:23:26;;;;;;;12.90;6.10;;;1.20;99.90;0.10;101409;;;;565432;249;24092;-79
2024/01/21 05:25:54;;;;;;;16.10;8.30;;;1.20;99.90;0.10;101410;;;;565371;248;24081;-78
2024/01/21 05:28:22;;;;;;;13.47;6.63;;;1.30;99.90;0.10;101403;;;;565062;249;24103;-77
2024/01/21 05:30:50;;;;;;;23.48;11.20;;;1.30;99.90;0.20;101415;;;;560230;249;35319;-78
2024/01/21 05:33:18;;;;;;;21.33;9.97;;;1.30;99.90;0.20;101405;;;;575383;249;24096;-81
2024/01/21 05:35:46;;;;;;;16.93;6.40;;;1.30;99.90;0.20;101406;;;;565000;249;25152;-79
2024/01/21 05:38:15;;;;;;;13.83;6.33;;;1.40;99.90;0.20;101411;;;;565156;247;24083;-77
2024/01/21 05:40:43;;;;;;;15.30;7.63;;;1.40;99.90;0.30;101406;;;;564926;249;24086;-76
2024/01/21 05:43:10;;;;;;;10.40;6.20;;;1.40;99.90;0.30;101406;;;;566224;249;24141;-80
2024/01/21 05:45:40;;;;;;;14.57;7.63;;;1.40;99.90;0.30;101414;;;;565881;249;24137;-80
2024/01/21 05:48:07;;;;;;;14.17;6.87;;;1.50;99.90;0.30;101412;;;;566138;249;24116;-81
2024/01/21 05:50:35;;;;;;;16.50;7.40;;;1.50;99.90;0.40;101408;;;;564458;249;24084;-79
2024/01/21 05:53:06;;;;;;;17.43;7.80;;;1.50;99.90;0.40;101408;;;;565954;249;24082;-78
2024/01/21 05:55:36;;;;;;;13.07;5.97;;;1.50;99.90;0.40;101408;;;;565926;249;24094;-79
2024/01/21 05:58:01;;;;;;;12.20;6.17;;;1.50;99.90;0.40;101409;;;;567277;249;24118;-79
2024/01/21 06:00:29;;;;;;;12.53;7.40;;;1.50;99.90;0.40;101401;;;;565380;249;24105;-78
2024/01/21 06:02:57;;;;;;;14.10;6.40;;;1.50;99.90;0.40;101398;;;;565336;249;24108;-77
2024/01/21 06:05:26;;;;;;;15.40;7.90;;;1.50;99.90;0.40;101396;;;;565407;249;24096;-79
2024/01/21 06:07:54;;;;;;;22.33;7.83;;;1.50;99.90;0.40;101393;;;;565307;249;24169;-77
2024/01/21 06:10:22;;;;;;;10.97;7.20;;;1.50;99.90;0.40;101404;;;;565258;249;24132;-80
2024/01/21 06:12:52;;;;;;;14.87;7.43;;;1.50;99.90;0.40;101409;;;;565372;249;24091;-79
2024/01/21 06:15:17;;;;;;;24.42;13.40;;;1.60;99.90;0.40;101401;;;;563797;249;35379;-79
2024/01/21 06:17:46;;;;;;;19.63;9.37;;;1.50;99.90;0.40;101410;;;;575488;249;24121;-80
2024/01/21 06:20:14;;;;;;;15.47;8.73;;;1.60;99.90;0.40;101402;;;;563883;249;24092;-79
2024/01/21 06:22:41;;;;;;;14.10;7.47;;;1.60;99.90;0.40;101402;;;;565420;249;24132;-80
2024/01/21 06:25:10;;;;;;;14.93;7.70;;;1.60;99.90;0.40;101408;;;;565496;249;24103;-79
2024/01/21 06:27:38;;;;;;;17.43;7.87;;;1.50;99.90;0.40;101411;;;;565090;249;24109;-79
2024/01/21 06:30:18;;;;;;;13.13;7.70;;;1.50;99.90;0.40;101408;;;;563551;249;24097;-79
2024/01/21 06:32:44;;;;;;;17.97;8.53;;;1.50;99.90;0.30;101401;;;;566613;249;24096;-80
2024/01/21 06:35:12;;;;;;;15.50;7.10;;;1.40;99.90;0.30;101408;;;;563546;249;24114;-80
2024/01/21 06:37:40;;;;;;;12.67;7.50;;;1.40;99.90;0.30;101403;;;;565088;249;24089;-79
2024/01/21 06:40:08;;;;;;;14.73;8.10;;;1.40;99.90;0.30;101399;;;;565216;249;24096;-80
2024/01/21 06:42:36;;;;;;;12.90;6.83;;;1.40;99.90;0.30;101401;;;;575391;249;24076;-79
2024/01/21 06:45:07;;;;;;;16.97;8.03;;;1.40;99.90;0.40;101405;;;;563411;249;24087;-77
2024/01/21 06:47:33;;;;;;;16.60;8.17;;;1.40;99.90;0.40;101395;;;;575271;249;24106;-79
2024/01/21 06:50:01;;;;;;;16.43;9.03;;;1.40;99.90;0.40;101399;;;;564033;247;24099;-79
2024/01/21 06:52:29;;;;;;;18.17;7.63;;;1.40;99.90;0.40;101401;;;;566810;249;24085;-79
2024/01/21 06:54:57;;;;;;;18.13;8.60;;;1.50;99.90;0.40;101396;;;;566402;249;24086;-79
2024/01/21 06:57:25;;;;;;;15.27;7.27;;;1.50;99.90;0.40;101391;;;;566137;249;24128;-78
2024/01/21 06:59:53;;;;;;;11.27;6.70;;;1.50;99.90;0.40;101389;;;;565773;249;24127;-79
2024/01/21 07:02:21;;;;;;;28.00;15.68;;;1.50;99.90;0.40;101398;;;;560632;249;35308;-79
2024/01/21 07:04:49;;;;;;;26.50;11.20;;;1.50;99.90;0.40;101392;;;;575994;249;24097;-78
2024/01/21 07:07:17;;;;;;;15.60;7.87;;;1.50;99.90;0.40;101396;;;;575932;249;24114;-78
2024/01/21 07:09:45;;;;;;;19.00;7.73;;;1.50;99.90;0.50;101405;;;;565520;249;24087;-76
2024/01/21 07:12:13;;;;;;;13.93;7.57;;;1.60;99.90;0.50;101391;;;;565370;249;24111;-80
2024/01/21 07:14:41;;;;;;;17.27;6.70;;;1.60;99.90;0.50;101401;;;;565161;249;24092;-78
2024/01/21 07:17:12;;;;;;;13.57;7.30;;;1.60;99.90;0.50;101412;;;;565365;249;24084;-77
2024/01/21 07:19:37;;;;;;;20.53;8.50;;;1.60;99.90;0.50;101407;;;;566354;249;24088;-80
2024/01/21 07:22:05;;;;;;;16.67;6.67;;;1.60;99.90;0.50;101412;;;;564148;249;24095;-80
2024/01/21 07:24:33;;;;;;;13.63;8.13;;;1.60;99.90;0.60;101411;;;;565715;249;24112;-79
2024/01/21 07:27:01;;;;;;;18.63;7.23;;;1.60;99.90;0.60;101415;;;;565334;249;24085;-79
2024/01/21 07:29:29;;;;;;;19.93;7.40;;;1.70;99.90;0.60;101406;;;;565029;249;24092;-78
2024/01/21 07:31:57;;;;;;;13.43;7.20;;;1.70;99.90;0.60;101419;;;;565419;249;24094;-76
2024/01/21 07:34:25;;;;;;;13.00;7.97;;;1.70;99.90;0.70;101408;;;;565368;249;24077;-76
2024/01/21 07:36:52;;;;;;;14.40;7.27;;;1.80;99.90;0.70;101414;;;;565355;249;24088;-77
2024/01/21 07:39:20;;;;;;;13.13;6.27;;;1.80;99.90;0.70;101410;;;;565396;249;24081;-79
2024/01/21 07:41:49;;;;;;;14.57;7.20;;;1.80;99.90;0.80;101405;;;;565390;249;24069;-78
2024/01/21 07:44:18;;;;;;;20.73;8.00;;;1.90;99.90;0.80;101399;;;;565406;249;24122;-77
2024/01/21 07:46:46;;;;;;;15.27;7.40;;;1.90;99.90;0.90;101404;;;;565411;249;24083;-76
2024/01/21 07:49:14;;;;;;;13.53;6.27;;;2.00;99.90;0.90;101400;;;;565340;249;24126;-76
2024/01/21 07:51:41;;;;;;;8.77;6.33;;;2.00;99.90;0.90;101400;;;;563659;249;24134;-76
2024/01/21 07:54:10;;;;;;;11.07;6.47;;;2.00;99.90;0.90;101404;;;;565108;249;24083;-75
2024/01/21 07:56:38;;;;;;;10.57;5.20;;;2.00;99.90;0.90;101403;;;;565147;249;24066;-76
2024/01/21 07:59:06;;;;;;;12.23;6.23;;;2.00;99.90;0.90;101398;;;;565094;249;24109;-76
2024/01/21 08:01:34;;;;;;;12.27;4.80;;;2.00;99.90;0.90;101383;;;;565570;247;24127;-78
2024/01/21 08:04:02;;;;;;;8.87;4.90;;;2.00;99.90;0.90;101396;;;;566834;249;24080;-75
2024/01/21 08:06:30;;;;;;;4.47;3.40;;;1.90;99.90;0.90;101390;;;;566458;249;24084;-76
2024/01/21 08:08:58;;;;;;;7.97;4.80;;;2.00;99.90;0.90;101397;;;;566289;249;24154;-77
2024/01/21 08:11:26;;;;;;;9.23;4.77;;;2.00;99.90;0.90;101392;;;;566142;249;24098;-77
2024/01/21 08:13:54;;;;;;;7.10;3.80;;;2.00;99.90;1.00;101394;;;;565886;249;24129;-77
2024/01/21 08:16:22;;;;;;;9.93;4.20;;;2.10;99.90;1.00;101400;;;;565949;249;24105;-75
2024/01/21 08:18:50;;;;;;;11.17;4.73;;;2.10;99.90;1.10;101399;;;;565938;249;24126;-75
2024/01/21 08:21:18;;;;;;;12.17;4.70;;;2.20;99.90;1.20;101391;;;;565777;249;24098;-75
2024/01/21 08:23:46;;;;;;;13.60;5.43;;;2.30;99.90;1.30;101390;;;;563857;249;24167;-76
2024/01/21 08:26:14;;;;;;;9.00;4.77;;;2.40;99.90;1.40;101388;;;;565233;247;24110;-78
2024/01/21 08:28:43;;;;;;;9.40;5.07;;;2.60;99.90;1.50;101386;;;;565378;249;24124;-76
2024/01/21 08:31:10;;;;;;;10.97;6.33;;;2.60;99.90;1.60;101383;;;;565638;249;24151;-76
2024/01/21 08:33:38;;;;;;;13.13;6.13;;;2.70;99.90;1.80;101378;;;;565735;249;24092;-76
2024/01/21 08:36:09;;;;;;;4.87;3.43;;;2.80;99.90;2.00;101375;;;;565736;249;24076;-76
2024/01/21 08:38:35;;;;;;;8.23;5.20;;;3.20;99.90;2.20;101378;;;;569614;249;25132;-76
2024/01/21 08:41:03;;;;;;;11.80;5.37;;;3.20;99.90;2.20;101382;;;;565393;249;24081;-75
2024/01/21 08:43:30;;;;;;;12.93;5.60;;;3.30;99.90;2.20;101376;;;;563811;249;24099;-75
2024/01/21 08:45:58;;;;;;;12.93;5.23;;;3.30;99.90;2.20;101374;;;;565358;249;24070;-76
2024/01/21 08:48:26;;;;;;;6.93;5.30;;;3.30;99.90;2.10;101365;;;;565488;249;24086;-75
2024/01/21 08:50:55;;;;;;;9.33;5.67;;;3.30;99.90;2.00;101368;;;;565417;249;24081;-77
2024/01/21 08:53:22;;;;;;;9.80;5.73;;;3.20;99.90;2.00;101371;;;;565078;249;24115;-76
2024/01/21 08:55:50;;;;;;;11.73;6.43;;;3.10;99.90;1.90;101364;;;;564992;249;24095;-76
2024/01/21 08:58:18;;;;;;;7.73;5.37;;;3.00;99.90;1.90;101369;;;;565069;249;24091;-76
2024/01/21 09:00:46;;;;;;;8.80;5.67;;;3.00;99.90;2.00;101377;;;;564971;249;24142;-77
2024/01/21 09:03:14;;;;;;;10.17;5.70;;;3.10;99.90;2.00;101364;;;;565453;249;24077;-76
2024/01/21 09:05:42;;;;;;;12.20;6.20;;;3.10;99.90;2.10;101365;;;;565334;249;24104;-78
2024/01/21 09:08:10;;;;;;;15.53;6.97;;;3.10;99.90;2.10;101361;;;;565449;249;24107;-76
2024/01/21 09:10:37;;;;;;;14.63;6.80;;;3.20;99.90;2.20;101373;;;;565422;249;24081;-78
2024/01/21 09:13:06;;;;;;;9.03;6.10;;;3.20;99.90;2.30;101372;;;;565504;247;24133;-78
2024/01/21 09:15:33;;;;;;;9.53;6.83;;;3.40;99.90;2.50;101382;;;;566824;249;24083;-79
2024/01/21 09:18:04;;;;;;;15.00;6.33;;;3.50;99.90;2.70;101370;;;;566441;249;24098;-76
2024/01/21 09:20:29;;;;;;;7.00;5.27;;;3.70;99.90;2.90;101380;;;;564494;249;24084;-77
2024/01/21 09:22:57;;;;;;;17.77;6.30;;;3.90;99.90;3.00;101382;;;;566108;249;24136;-77
2024/01/21 09:25:25;;;;;;;15.73;6.20;;;4.10;99.90;3.20;101384;;;;563977;249;24127;-76
2024/01/21 09:27:54;;;;;;;12.00;6.40;;;4.20;99.90;3.10;101390;;;;565474;249;24186;-76
2024/01/21 09:30:21;;;;;;;7.00;5.23;;;4.20;99.90;2.90;101386;;;;565468;249;24080;-75
2024/01/21 09:32:49;;;;;;;20.43;7.60;;;4.00;99.90;2.70;101383;;;;565750;249;24092;-75
2024/01/21 09:35:20;;;;;;;14.67;9.60;;;3.90;99.90;2.60;101385;;;;560793;249;35268;-76
2024/01/21 09:37:45;;;;;;;17.25;9.95;;;3.70;99.90;2.40;101384;;;;559168;249;35247;-78
2024/01/21 09:40:13;;;;;;;14.10;9.15;;;3.50;99.90;2.30;101384;;;;560729;249;35273;-75
2024/01/21 09:42:41;;;;;;;7.47;5.97;;;3.40;99.90;2.30;101376;;;;567369;249;24088;-81
2024/01/21 09:45:12;;;;;;;13.80;5.80;;;3.40;99.90;2.30;101372;;;;568327;249;24103;-80
2024/01/21 09:47:40;;;;;;;13.93;6.80;;;3.40;99.90;2.40;101378;;;;565617;249;24076;-77
2024/01/21 09:50:08;;;;;;;8.77;5.30;;;3.40;99.90;2.60;101368;;;;566807;249;24089;-76
2024/01/21 09:52:36;;;;;;;9.60;4.87;;;3.60;99.90;2.70;101373;;;;567055;249;24102;-77
2024/01/21 09:55:03;;;;;;;9.53;4.83;;;3.80;99.90;3.00;101373;;;;565175;249;24085;-77
2024/01/21 09:57:32;;;;;;;8.73;4.80;;;4.00;99.90;3.20;101378;;;;563475;249;24094;-78
2024/01/21 09:59:59;;;;;;;10.57;5.67;;;4.20;99.90;3.30;101384;;;;565022;249;24090;-77
2024/01/21 10:02:27;;;;;;;11.73;5.23;;;4.30;99.90;3.30;101377;;;;565093;249;24146;-76
2024/01/21 10:04:55;;;;;;;8.47;5.43;;;4.40;99.90;3.40;101374;;;;563944;249;24076;-78
2024/01/21 10:07:23;;;;;;;11.83;5.63;;;4.50;99.90;3.50;101385;;;;563881;249;24087;-75
2024/01/21 10:09:55;;;;;;;8.17;5.23;;;4.70;99.90;3.60;101392;;;;567156;249;24147;-76
2024/01/21 10:12:26;;;;;;;13.97;6.47;;;4.80;99.90;3.60;101386;;;;565387;249;24084;-76
2024/01/21 10:14:52;;;;;;;11.80;6.17;;;4.80;99.90;3.70;101384;;;;563624;249;24088;-79
2024/01/21 10:17:26;;;;;;;9.70;5.23;;;4.80;99.90;3.90;101374;;;;563806;249;24093;-78
2024/01/21 10:19:54;;;;;;;8.97;5.17;;;4.90;99.90;4.10;101371;;;;567228;249;24132;-79
2024/01/21 10:22:23;;;;;;;9.60;5.23;;;5.10;99.90;4.10;101386;;;;567203;249;24107;-78
2024/01/21 10:24:50;;;;;;;8.20;5.30;;;5.10;99.90;4.10;101380;;;;564103;247;24084;-79
2024/01/21 10:27:18;;;;;;;7.20;5.60;;;5.20;99.90;4.00;101381;;;;564756;249;24156;-80
2024/01/21 10:29:48;;;;;;;4.50;4.00;;;5.20;99.90;4.00;101366;;;;565914;249;24092;-78
2024/01/21 10:32:14;;;;;;;9.63;4.80;;;5.10;99.90;3.90;101370;;;;564148;249;24100;-80
2024/01/21 10:34:44;;;;;;;7.80;4.97;;;5.00;99.90;3.70;101358;;;;576479;249;24144;-80
2024/01/21 10:37:09;;;;;;;6.37;4.80;;;4.90;99.90;3.60;101379;;;;564308;249;24110;-79
2024/01/21 10:39:40;;;;;;;9.23;4.33;;;4.70;99.90;3.50;101357;;;;565898;249;24147;-79
2024/01/21 10:42:12;;;;;;;8.67;5.30;;;4.60;99.90;3.40;101344;;;;567381;249;24094;-81
2024/01/21 10:44:37;;;;;;;9.90;5.57;;;4.30;99.90;3.10;101339;;;;566737;249;24104;-77
2024/01/21 10:47:07;;;;;;;6.43;4.67;;;4.30;99.90;3.00;101333;;;;567433;249;24120;-81
2024/01/21 10:49:32;;;;;;;6.67;4.07;;;4.20;99.90;3.00;101328;;;;563870;249;24081;-81
2024/01/21 10:52:00;;;;;;;6.07;3.23;;;4.10;99.90;2.80;101328;;;;567259;249;24107;-79
2024/01/21 10:54:28;;;;;;;7.73;4.93;;;3.90;99.90;2.60;101329;;;;569825;249;24111;-80
2024/01/21 10:57:00;;;;;;;7.67;4.93;;;3.80;99.90;2.50;101320;;;;566709;249;24117;-79
2024/01/21 10:59:24;;;;;;;7.70;5.10;;;3.60;99.90;2.40;101317;;;;568404;249;24160;-81
2024/01/21 11:01:52;;;;;;;11.17;5.90;;;3.50;99.90;2.30;101310;;;;563637;249;25161;-82
2024/01/21 11:04:20;;;;;;;7.47;4.70;;;3.40;99.90;2.20;101320;;;;566555;249;24092;-80
2024/01/21 11:06:51;;;;;;;5.90;3.67;;;3.30;99.90;2.20;101322;;;;566470;249;27623;-81
2024/01/21 11:09:21;;;;;;;5.70;4.40;;;3.30;99.90;2.30;101320;;;;565183;249;24112;-79
2024/01/21 11:11:49;;;;;;;5.73;4.37;;;3.30;99.90;2.40;101319;;;;563606;249;24088;-79
2024/01/21 11:14:36;;;;;;;11.43;5.43;;;3.50;99.90;2.50;101307;;;;575606;248;24150;-80
2024/01/21 11:17:06;;;;;;;9.23;4.57;;;3.50;99.90;2.70;101312;;;;565025;249;24082;-79
2024/01/21 11:19:50;;;;;;;7.17;3.93;;;3.70;99.90;2.80;101301;;;;563285;249;24150;-80